sensor_id;sensor_type;location;lat;lon;timestamp;temperature;humidity
16827;DHT22;8530;49.540;8.576;2023-08-17T00:02:24;20.00;99.90
16827;DHT22;8530;49.540;8.576;2023-08-17T00:04:51;20.00;99.90
16827;DHT22;8530;49.540;8.576;2023-08-17T00:07:17;20.00;99.90
16827;DHT22;8530;49.540;8.576;2023-08-17T00:09:44;20.00;99.90
16827;DHT22;8530;49.540;8.576;2023-08-17T00:12:11;19.90;99.90
16827;DHT22;8530;49.540;8.576;2023-08-17T00:14:37;19.90;99.90
16827;DHT22;8530;49.540;8.576;2023-08-17T00:17:04;19.90;99.90
16827;DHT22;8530;49.540;8.576;2023-08-17T00:19:32;19.90;99.90
16827;DHT22;8530;49.540;8.576;2023-08-17T00:21:59;19.90;99.90
16827;DHT22;8530;49.540;8.576;2023-08-17T00:24:25;19.90;99.90
16827;DHT22;8530;49.540;8.576;2023-08-17T00:26:52;19.90;99.90
16827;DHT22;8530;49.540;8.576;2023-08-17T00:29:19;20.00;99.90
16827;DHT22;8530;49.540;8.576;2023-08-17T00:31:47;20.00;99.90
16827;DHT22;8530;49.540;8.576;2023-08-17T00:34:14;20.00;99.90
16827;DHT22;8530;49.540;8.576;2023-08-17T00:36:42;20.00;99.90
16827;DHT22;8530;49.540;8.576;2023-08-17T00:39:09;20.00;99.90
16827;DHT22;8530;49.540;8.576;2023-08-17T00:41:35;19.90;99.90
16827;DHT22;8530;49.540;8.576;2023-08-17T00:44:02;19.90;99.90
16827;DHT22;8530;49.540;8.576;2023-08-17T00:46:30;19.90;99.90
16827;DHT22;8530;49.540;8.576;2023-08-17T00:48:57;19.80;99.90
16827;DHT22;8530;49.540;8.576;2023-08-17T00:51:25;19.80;99.90
16827;DHT22;8530;49.540;8.576;2023-08-17T00:53:57;19.80;99.90
16827;DHT22;8530;49.540;8.576;2023-08-17T00:56:25;19.80;99.90
16827;DHT22;8530;49.540;8.576;2023-08-17T00:58:52;19.80;99.90
16827;DHT22;8530;49.540;8.576;2023-08-17T01:01:19;19.70;99.90
16827;DHT22;8530;49.540;8.576;2023-08-17T01:03:47;19.70;99.90
16827;DHT22;8530;49.540;8.576;2023-08-17T01:06:13;19.70;99.90
16827;DHT22;8530;49.540;8.576;2023-08-17T01:08:41;19.70;99.90
16827;DHT22;8530;49.540;8.576;2023-08-17T01:11:25;19.70;99.90
16827;DHT22;8530;49.540;8.576;2023-08-17T01:13:57;19.70;99.90
16827;DHT22;8530;49.540;8.576;2023-08-17T01:16:29;19.70;99.90
16827;DHT22;8530;49.540;8.576;2023-08-17T01:18:58;19.60;99.90
16827;DHT22;8530;49.540;8.576;2023-08-17T01:21:35;19.60;99.90
16827;DHT22;8530;49.540;8.576;2023-08-17T01:24:05;19.60;99.90
16827;DHT22;8530;49.540;8.576;2023-08-17T01:26:32;19.60;99.90
16827;DHT22;8530;49.540;8.576;2023-08-17T01:28:58;19.60;99.90
16827;DHT22;8530;49.540;8.576;2023-08-17T01:31:30;19.50;99.90
16827;DHT22;8530;49.540;8.576;2023-08-17T01:34:04;19.50;99.90
16827;DHT22;8530;49.540;8.576;2023-08-17T01:36:37;19.60;99.90
16827;DHT22;8530;49.540;8.576;2023-08-17T01:39:05;19.50;99.90
16827;DHT22;8530;49.540;8.576;2023-08-17T01:41:33;19.50;99.90
16827;DHT22;8530;49.540;8.576;2023-08-17T01:44:01;19.50;99.90
16827;DHT22;8530;49.540;8.576;2023-08-17T01:46:31;19.50;99.90
16827;DHT22;8530;49.540;8.576;2023-08-17T01:48:58;19.50;99.90
16827;DHT22;8530;49.540;8.576;2023-08-17T01:51:25;19.40;99.90
16827;DHT22;8530;49.540;8.576;2023-08-17T01:53:52;19.40;99.90
16827;DHT22;8530;49.540;8.576;2023-08-17T01:56:20;19.40;99.90
16827;DHT22;8530;49.540;8.576;2023-08-17T01:58:47;19.40;99.90
16827;DHT22;8530;49.540;8.576;2023-08-17T02:01:13;19.40;99.90
16827;DHT22;8530;49.540;8.576;2023-08-17T02:03:40;19.40;99.90
16827;DHT22;8530;49.540;8.576;2023-08-17T02:06:07;19.40;99.90
16827;DHT22;8530;49.540;8.576;2023-08-17T02:08:34;19.40;99.90
16827;DHT22;8530;49.540;8.576;2023-08-17T02:11:01;19.40;99.90
16827;DHT22;8530;49.540;8.576;2023-08-17T02:13:29;19.30;99.90
16827;DHT22;8530;49.540;8.576;2023-08-17T02:15:55;19.30;99.90
16827;DHT22;8530;49.540;8.576;2023-08-17T02:18:22;19.30;99.90
16827;DHT22;8530;49.540;8.576;2023-08-17T02:20:49;19.30;99.90
16827;DHT22;8530;49.540;8.576;2023-08-17T02:23:15;19.30;99.90
16827;DHT22;8530;49.540;8.576;2023-08-17T02:25:42;19.30;99.90
16827;DHT22;8530;49.540;8.576;2023-08-17T02:28:09;19.30;99.90
16827;DHT22;8530;49.540;8.576;2023-08-17T02:30:37;19.20;99.90
16827;DHT22;8530;49.540;8.576;2023-08-17T02:33:04;19.20;99.90
16827;DHT22;8530;49.540;8.576;2023-08-17T02:35:31;19.10;99.90
16827;DHT22;8530;49.540;8.576;2023-08-17T02:37:56;19.20;99.90
16827;DHT22;8530;49.540;8.576;2023-08-17T02:40:23;19.10;99.90
16827;DHT22;8530;49.540;8.576;2023-08-17T02:42:50;19.10;99.90
16827;DHT22;8530;49.540;8.576;2023-08-17T02:45:17;19.00;99.90
16827;DHT22;8530;49.540;8.576;2023-08-17T02:47:45;19.00;99.90
16827;DHT22;8530;49.540;8.576;2023-08-17T02:50:11;19.00;99.90
16827;DHT22;8530;49.540;8.576;2023-08-17T02:52:38;19.00;99.90
16827;DHT22;8530;49.540;8.576;2023-08-17T02:55:06;19.00;99.90
16827;DHT22;8530;49.540;8.576;2023-08-17T02:57:33;18.90;99.90
16827;DHT22;8530;49.540;8.576;2023-08-17T03:00:00;18.90;99.90
16827;DHT22;8530;49.540;8.576;2023-08-17T03:02:26;18.90;99.90
16827;DHT22;8530;49.540;8.576;2023-08-17T03:04:54;18.80;99.90
16827;DHT22;8530;49.540;8.576;2023-08-17T03:07:21;18.80;99.90
16827;DHT22;8530;49.540;8.576;2023-08-17T03:09:48;18.80;99.90
16827;DHT22;8530;49.540;8.576;2023-08-17T03:12:14;18.80;99.90
16827;DHT22;8530;49.540;8.576;2023-08-17T03:14:41;18.80;99.90
16827;DHT22;8530;49.540;8.576;2023-08-17T03:17:08;18.80;99.90
16827;DHT22;8530;49.540;8.576;2023-08-17T03:19:34;18.70;99.90
16827;DHT22;8530;49.540;8.576;2023-08-17T03:22:03;18.70;99.90
16827;DHT22;8530;49.540;8.576;2023-08-17T03:24:29;18.70;99.90
16827;DHT22;8530;49.540;8.576;2023-08-17T03:26:56;18.70;99.90
16827;DHT22;8530;49.540;8.576;2023-08-17T03:29:23;18.70;99.90
16827;DHT22;8530;49.540;8.576;2023-08-17T03:31:49;18.70;99.90
16827;DHT22;8530;49.540;8.576;2023-08-17T03:34:16;18.70;99.90
16827;DHT22;8530;49.540;8.576;2023-08-17T03:36:43;18.80;99.90
16827;DHT22;8530;49.540;8.576;2023-08-17T03:39:11;18.80;99.90
16827;DHT22;8530;49.540;8.576;2023-08-17T03:41:38;18.80;99.90
16827;DHT22;8530;49.540;8.576;2023-08-17T03:44:05;18.80;99.90
16827;DHT22;8530;49.540;8.576;2023-08-17T03:46:32;18.80;99.90
16827;DHT22;8530;49.540;8.576;2023-08-17T03:48:59;18.80;99.90
16827;DHT22;8530;49.540;8.576;2023-08-17T03:51:25;18.80;99.90
16827;DHT22;8530;49.540;8.576;2023-08-17T03:53:52;18.80;99.90
16827;DHT22;8530;49.540;8.576;2023-08-17T03:56:20;18.80;99.90
16827;DHT22;8530;49.540;8.576;2023-08-17T03:58:47;18.90;99.90
16827;DHT22;8530;49.540;8.576;2023-08-17T04:01:14;18.90;99.90
16827;DHT22;8530;49.540;8.576;2023-08-17T04:03:40;18.90;99.90
16827;DHT22;8530;49.540;8.576;2023-08-17T04:06:07;18.90;99.90
16827;DHT22;8530;49.540;8.576;2023-08-17T04:08:35;18.90;99.90
16827;DHT22;8530;49.540;8.576;2023-08-17T04:11:03;18.90;99.90
16827;DHT22;8530;49.540;8.576;2023-08-17T04:13:31;18.90;99.90
16827;DHT22;8530;49.540;8.576;2023-08-17T04:15:58;19.00;99.90
16827;DHT22;8530;49.540;8.576;2023-08-17T04:18:52;19.00;99.90
16827;DHT22;8530;49.540;8.576;2023-08-17T04:21:18;18.90;99.90
16827;DHT22;8530;49.540;8.576;2023-08-17T04:23:46;19.00;99.90
16827;DHT22;8530;49.540;8.576;2023-08-17T04:26:13;19.00;99.90
16827;DHT22;8530;49.540;8.576;2023-08-17T04:28:41;19.00;99.90
16827;DHT22;8530;49.540;8.576;2023-08-17T04:31:07;19.00;99.90
16827;DHT22;8530;49.540;8.576;2023-08-17T04:33:34;19.00;99.90
16827;DHT22;8530;49.540;8.576;2023-08-17T04:36:01;19.10;99.90
16827;DHT22;8530;49.540;8.576;2023-08-17T04:38:28;19.10;99.90
16827;DHT22;8530;49.540;8.576;2023-08-17T04:40:54;19.10;99.90
16827;DHT22;8530;49.540;8.576;2023-08-17T04:43:21;19.10;99.90
16827;DHT22;8530;49.540;8.576;2023-08-17T04:45:49;19.10;99.90
16827;DHT22;8530;49.540;8.576;2023-08-17T04:48:16;19.20;99.90
16827;DHT22;8530;49.540;8.576;2023-08-17T04:50:42;19.20;99.90
16827;DHT22;8530;49.540;8.576;2023-08-17T04:53:09;19.10;99.90
16827;DHT22;8530;49.540;8.576;2023-08-17T04:55:36;19.10;99.90
16827;DHT22;8530;49.540;8.576;2023-08-17T04:58:03;19.10;99.90
16827;DHT22;8530;49.540;8.576;2023-08-17T05:00:30;19.10;99.90
16827;DHT22;8530;49.540;8.576;2023-08-17T05:02:58;19.10;99.90
16827;DHT22;8530;49.540;8.576;2023-08-17T05:05:25;19.10;99.90
16827;DHT22;8530;49.540;8.576;2023-08-17T05:07:52;19.10;99.90
16827;DHT22;8530;49.540;8.576;2023-08-17T05:10:19;19.20;99.90
16827;DHT22;8530;49.540;8.576;2023-08-17T05:12:46;19.30;99.90
16827;DHT22;8530;49.540;8.576;2023-08-17T05:15:13;19.40;99.90
16827;DHT22;8530;49.540;8.576;2023-08-17T05:17:39;19.40;99.90
16827;DHT22;8530;49.540;8.576;2023-08-17T05:20:08;19.50;99.90
16827;DHT22;8530;49.540;8.576;2023-08-17T05:22:37;19.60;99.90
16827;DHT22;8530;49.540;8.576;2023-08-17T05:25:05;19.70;99.90
16827;DHT22;8530;49.540;8.576;2023-08-17T05:27:31;19.70;99.90
16827;DHT22;8530;49.540;8.576;2023-08-17T05:29:58;19.80;99.90
16827;DHT22;8530;49.540;8.576;2023-08-17T05:32:25;19.80;99.90
16827;DHT22;8530;49.540;8.576;2023-08-17T05:34:52;19.90;99.90
16827;DHT22;8530;49.540;8.576;2023-08-17T05:37:20;20.00;99.90
16827;DHT22;8530;49.540;8.576;2023-08-17T05:39:46;20.10;99.90
16827;DHT22;8530;49.540;8.576;2023-08-17T05:42:13;20.20;99.90
16827;DHT22;8530;49.540;8.576;2023-08-17T05:44:40;20.20;99.90
16827;DHT22;8530;49.540;8.576;2023-08-17T05:47:07;20.30;99.90
16827;DHT22;8530;49.540;8.576;2023-08-17T05:49:34;20.30;99.90
16827;DHT22;8530;49.540;8.576;2023-08-17T05:52:01;20.40;99.90
16827;DHT22;8530;49.540;8.576;2023-08-17T05:54:29;20.50;99.90
16827;DHT22;8530;49.540;8.576;2023-08-17T05:56:56;20.50;99.90
16827;DHT22;8530;49.540;8.576;2023-08-17T05:59:22;20.50;99.90
16827;DHT22;8530;49.540;8.576;2023-08-17T06:01:49;20.50;99.90
16827;DHT22;8530;49.540;8.576;2023-08-17T06:04:16;20.60;99.90
16827;DHT22;8530;49.540;8.576;2023-08-17T06:06:43;20.60;99.90
16827;DHT22;8530;49.540;8.576;2023-08-17T06:09:09;20.60;99.90
16827;DHT22;8530;49.540;8.576;2023-08-17T06:11:37;20.60;99.90
16827;DHT22;8530;49.540;8.576;2023-08-17T06:14:04;20.70;99.90
16827;DHT22;8530;49.540;8.576;2023-08-17T06:16:31;20.80;99.90
16827;DHT22;8530;49.540;8.576;2023-08-17T06:18:58;20.80;99.90
16827;DHT22;8530;49.540;8.576;2023-08-17T06:21:24;20.80;99.90
16827;DHT22;8530;49.540;8.576;2023-08-17T06:23:51;20.90;99.90
16827;DHT22;8530;49.540;8.576;2023-08-17T06:26:18;21.00;99.90
16827;DHT22;8530;49.540;8.576;2023-08-17T06:28:46;21.10;99.90
16827;DHT22;8530;49.540;8.576;2023-08-17T06:31:14;21.10;99.90
16827;DHT22;8530;49.540;8.576;2023-08-17T06:33:41;21.10;99.90
16827;DHT22;8530;49.540;8.576;2023-08-17T06:36:08;21.30;99.90
16827;DHT22;8530;49.540;8.576;2023-08-17T06:38:34;21.50;99.90
16827;DHT22;8530;49.540;8.576;2023-08-17T06:41:01;21.60;99.90
16827;DHT22;8530;49.540;8.576;2023-08-17T06:43:28;21.80;99.90
16827;DHT22;8530;49.540;8.576;2023-08-17T06:45:56;21.90;99.90
16827;DHT22;8530;49.540;8.576;2023-08-17T06:48:24;22.00;99.90
16827;DHT22;8530;49.540;8.576;2023-08-17T06:50:51;22.20;99.90
16827;DHT22;8530;49.540;8.576;2023-08-17T06:53:18;22.30;99.90
16827;DHT22;8530;49.540;8.576;2023-08-17T06:55:45;22.30;99.90
16827;DHT22;8530;49.540;8.576;2023-08-17T06:58:11;22.30;99.90
16827;DHT22;8530;49.540;8.576;2023-08-17T07:00:38;22.20;99.90
16827;DHT22;8530;49.540;8.576;2023-08-17T07:03:08;22.20;99.90
16827;DHT22;8530;49.540;8.576;2023-08-17T07:05:34;22.40;99.90
16827;DHT22;8530;49.540;8.576;2023-08-17T07:08:01;22.50;99.90
16827;DHT22;8530;49.540;8.576;2023-08-17T07:10:28;22.70;99.90
16827;DHT22;8530;49.540;8.576;2023-08-17T07:12:54;22.90;99.90
16827;DHT22;8530;49.540;8.576;2023-08-17T07:15:21;23.20;99.90
16827;DHT22;8530;49.540;8.576;2023-08-17T07:17:48;23.40;99.90
16827;DHT22;8530;49.540;8.576;2023-08-17T07:20:16;23.80;99.90
16827;DHT22;8530;49.540;8.576;2023-08-17T07:22:43;24.10;99.90
16827;DHT22;8530;49.540;8.576;2023-08-17T07:25:09;24.40;99.90
16827;DHT22;8530;49.540;8.576;2023-08-17T07:27:36;24.60;99.90
16827;DHT22;8530;49.540;8.576;2023-08-17T07:30:03;24.80;99.90
16827;DHT22;8530;49.540;8.576;2023-08-17T07:32:30;25.00;99.70
16827;DHT22;8530;49.540;8.576;2023-08-17T07:34:57;25.20;99.30
16827;DHT22;8530;49.540;8.576;2023-08-17T07:37:26;25.30;98.90
16827;DHT22;8530;49.540;8.576;2023-08-17T07:39:58;25.50;98.40
16827;DHT22;8530;49.540;8.576;2023-08-17T07:42:25;25.70;98.00
16827;DHT22;8530;49.540;8.576;2023-08-17T07:44:52;26.00;97.60
16827;DHT22;8530;49.540;8.576;2023-08-17T07:47:18;26.20;97.00
16827;DHT22;8530;49.540;8.576;2023-08-17T07:49:45;26.20;96.50
16827;DHT22;8530;49.540;8.576;2023-08-17T07:52:12;26.40;96.10
16827;DHT22;8530;49.540;8.576;2023-08-17T07:54:40;26.90;95.90
16827;DHT22;8530;49.540;8.576;2023-08-17T07:57:06;27.30;95.10
16827;DHT22;8530;49.540;8.576;2023-08-17T07:59:33;27.60;94.40
16827;DHT22;8530;49.540;8.576;2023-08-17T08:02:00;27.70;93.50
16827;DHT22;8530;49.540;8.576;2023-08-17T08:04:26;27.80;92.90
16827;DHT22;8530;49.540;8.576;2023-08-17T08:06:53;28.40;93.00
16827;DHT22;8530;49.540;8.576;2023-08-17T08:09:20;29.30;92.10
16827;DHT22;8530;49.540;8.576;2023-08-17T08:11:49;29.80;90.80
16827;DHT22;8530;49.540;8.576;2023-08-17T08:14:15;30.30;88.70
16827;DHT22;8530;49.540;8.576;2023-08-17T08:16:42;30.50;85.40
16827;DHT22;8530;49.540;8.576;2023-08-17T08:19:09;31.40;83.70
16827;DHT22;8530;49.540;8.576;2023-08-17T08:21:35;32.90;81.20
16827;DHT22;8530;49.540;8.576;2023-08-17T08:24:02;34.60;75.50
16827;DHT22;8530;49.540;8.576;2023-08-17T08:26:29;35.60;67.70
16827;DHT22;8530;49.540;8.576;2023-08-17T08:28:57;36.00;61.10
16827;DHT22;8530;49.540;8.576;2023-08-17T08:31:24;35.80;56.40
16827;DHT22;8530;49.540;8.576;2023-08-17T08:33:51;35.20;53.70
16827;DHT22;8530;49.540;8.576;2023-08-17T08:36:18;34.50;51.80
16827;DHT22;8530;49.540;8.576;2023-08-17T08:38:45;34.00;50.90
16827;DHT22;8530;49.540;8.576;2023-08-17T08:41:12;33.60;50.00
16827;DHT22;8530;49.540;8.576;2023-08-17T08:43:39;33.20;49.20
16827;DHT22;8530;49.540;8.576;2023-08-17T08:46:08;32.80;48.90
16827;DHT22;8530;49.540;8.576;2023-08-17T08:48:35;32.20;48.80
16827;DHT22;8530;49.540;8.576;2023-08-17T08:51:08;31.40;49.20
16827;DHT22;8530;49.540;8.576;2023-08-17T08:53:38;30.90;50.00
16827;DHT22;8530;49.540;8.576;2023-08-17T08:56:07;30.40;50.70
16827;DHT22;8530;49.540;8.576;2023-08-17T08:58:38;30.00;51.80
16827;DHT22;8530;49.540;8.576;2023-08-17T09:01:08;29.90;52.60
16827;DHT22;8530;49.540;8.576;2023-08-17T09:03:36;29.70;53.00
16827;DHT22;8530;49.540;8.576;2023-08-17T09:06:04;29.70;53.60
16827;DHT22;8530;49.540;8.576;2023-08-17T09:08:31;29.90;53.80
16827;DHT22;8530;49.540;8.576;2023-08-17T09:10:58;29.90;54.00
16827;DHT22;8530;49.540;8.576;2023-08-17T09:13:24;29.80;53.90
16827;DHT22;8530;49.540;8.576;2023-08-17T09:15:51;29.60;53.80
16827;DHT22;8530;49.540;8.576;2023-08-17T09:18:19;29.40;54.00
16827;DHT22;8530;49.540;8.576;2023-08-17T09:20:47;29.40;54.40
16827;DHT22;8530;49.540;8.576;2023-08-17T09:23:15;29.40;54.60
16827;DHT22;8530;49.540;8.576;2023-08-17T09:25:43;29.40;54.80
16827;DHT22;8530;49.540;8.576;2023-08-17T09:28:11;29.30;54.70
16827;DHT22;8530;49.540;8.576;2023-08-17T09:30:53;29.30;55.00
16827;DHT22;8530;49.540;8.576;2023-08-17T09:33:23;29.10;55.20
16827;DHT22;8530;49.540;8.576;2023-08-17T09:35:50;29.00;55.40
16827;DHT22;8530;49.540;8.576;2023-08-17T09:38:17;29.00;55.50
16827;DHT22;8530;49.540;8.576;2023-08-17T09:40:44;28.90;55.70
16827;DHT22;8530;49.540;8.576;2023-08-17T09:43:11;28.90;55.90
16827;DHT22;8530;49.540;8.576;2023-08-17T09:45:38;28.80;56.00
16827;DHT22;8530;49.540;8.576;2023-08-17T09:48:06;28.60;56.40
16827;DHT22;8530;49.540;8.576;2023-08-17T09:50:34;28.50;56.50
16827;DHT22;8530;49.540;8.576;2023-08-17T09:53:02;28.20;56.90
16827;DHT22;8530;49.540;8.576;2023-08-17T09:55:30;28.10;57.30
16827;DHT22;8530;49.540;8.576;2023-08-17T09:58:02;28.10;57.70
16827;DHT22;8530;49.540;8.576;2023-08-17T10:00:30;28.10;58.10
16827;DHT22;8530;49.540;8.576;2023-08-17T10:02:58;28.10;58.40
16827;DHT22;8530;49.540;8.576;2023-08-17T10:05:29;28.20;58.80
16827;DHT22;8530;49.540;8.576;2023-08-17T10:07:59;28.30;58.90
16827;DHT22;8530;49.540;8.576;2023-08-17T10:10:27;28.40;58.90
16827;DHT22;8530;49.540;8.576;2023-08-17T10:13:01;28.30;58.90
16827;DHT22;8530;49.540;8.576;2023-08-17T10:15:34;28.30;59.10
16827;DHT22;8530;49.540;8.576;2023-08-17T10:18:12;28.30;59.30
16827;DHT22;8530;49.540;8.576;2023-08-17T10:20:43;28.40;59.40
16827;DHT22;8530;49.540;8.576;2023-08-17T10:23:16;28.30;59.40
16827;DHT22;8530;49.540;8.576;2023-08-17T10:25:44;28.30;59.60
16827;DHT22;8530;49.540;8.576;2023-08-17T10:28:11;28.30;59.70
16827;DHT22;8530;49.540;8.576;2023-08-17T10:30:40;28.30;59.90
16827;DHT22;8530;49.540;8.576;2023-08-17T10:33:07;28.30;60.00
16827;DHT22;8530;49.540;8.576;2023-08-17T10:35:35;28.40;60.10
16827;DHT22;8530;49.540;8.576;2023-08-17T10:38:03;28.50;60.20
16827;DHT22;8530;49.540;8.576;2023-08-17T10:40:38;28.50;60.10
16827;DHT22;8530;49.540;8.576;2023-08-17T10:43:05;28.50;60.20
16827;DHT22;8530;49.540;8.576;2023-08-17T10:45:33;28.50;60.40
16827;DHT22;8530;49.540;8.576;2023-08-17T10:48:28;28.50;60.50
16827;DHT22;8530;49.540;8.576;2023-08-17T10:51:00;28.60;60.80
16827;DHT22;8530;49.540;8.576;2023-08-17T10:53:27;28.70;60.80
16827;DHT22;8530;49.540;8.576;2023-08-17T10:56:01;28.80;60.80
16827;DHT22;8530;49.540;8.576;2023-08-17T10:58:31;29.10;60.80
16827;DHT22;8530;49.540;8.576;2023-08-17T11:00:58;29.30;60.60
16827;DHT22;8530;49.540;8.576;2023-08-17T11:03:25;29.40;60.20
16827;DHT22;8530;49.540;8.576;2023-08-17T11:05:53;29.50;60.00
16827;DHT22;8530;49.540;8.576;2023-08-17T11:08:22;29.50;59.80
16827;DHT22;8530;49.540;8.576;2023-08-17T11:10:58;29.70;60.40
16827;DHT22;8530;49.540;8.576;2023-08-17T11:13:29;29.80;59.70
16827;DHT22;8530;49.540;8.576;2023-08-17T11:15:58;29.90;59.60
16827;DHT22;8530;49.540;8.576;2023-08-17T11:18:25;30.10;59.30
16827;DHT22;8530;49.540;8.576;2023-08-17T11:20:53;30.10;59.60
16827;DHT22;8530;49.540;8.576;2023-08-17T11:23:20;30.30;59.00
16827;DHT22;8530;49.540;8.576;2023-08-17T11:25:47;30.40;58.80
16827;DHT22;8530;49.540;8.576;2023-08-17T11:28:16;30.50;58.50
16827;DHT22;8530;49.540;8.576;2023-08-17T11:30:44;30.50;58.10
16827;DHT22;8530;49.540;8.576;2023-08-17T11:33:11;30.50;58.10
16827;DHT22;8530;49.540;8.576;2023-08-17T11:35:38;30.60;57.90
16827;DHT22;8530;49.540;8.576;2023-08-17T11:38:07;30.70;57.70
16827;DHT22;8530;49.540;8.576;2023-08-17T11:40:33;30.60;57.40
16827;DHT22;8530;49.540;8.576;2023-08-17T11:43:01;30.50;57.40
16827;DHT22;8530;49.540;8.576;2023-08-17T11:45:28;30.50;57.30
16827;DHT22;8530;49.540;8.576;2023-08-17T11:47:57;30.50;57.20
16827;DHT22;8530;49.540;8.576;2023-08-17T11:50:24;30.50;57.20
16827;DHT22;8530;49.540;8.576;2023-08-17T11:52:51;30.50;57.30
16827;DHT22;8530;49.540;8.576;2023-08-17T11:55:18;30.50;57.20
16827;DHT22;8530;49.540;8.576;2023-08-17T11:57:46;30.60;57.20
16827;DHT22;8530;49.540;8.576;2023-08-17T12:00:18;30.80;57.20
16827;DHT22;8530;49.540;8.576;2023-08-17T12:02:47;31.00;57.00
16827;DHT22;8530;49.540;8.576;2023-08-17T12:05:19;31.20;56.90
16827;DHT22;8530;49.540;8.576;2023-08-17T12:07:46;31.10;56.60
16827;DHT22;8530;49.540;8.576;2023-08-17T12:10:13;30.90;56.50
16827;DHT22;8530;49.540;8.576;2023-08-17T12:12:39;30.70;56.80
16827;DHT22;8530;49.540;8.576;2023-08-17T12:15:07;30.60;57.20
16827;DHT22;8530;49.540;8.576;2023-08-17T12:17:36;30.60;57.20
16827;DHT22;8530;49.540;8.576;2023-08-17T12:20:08;30.60;57.20
16827;DHT22;8530;49.540;8.576;2023-08-17T12:22:39;30.70;57.30
16827;DHT22;8530;49.540;8.576;2023-08-17T12:25:08;30.60;57.20
16827;DHT22;8530;49.540;8.576;2023-08-17T12:27:35;30.60;57.50
16827;DHT22;8530;49.540;8.576;2023-08-17T12:30:02;30.60;57.50
16827;DHT22;8530;49.540;8.576;2023-08-17T12:32:29;30.60;57.60
16827;DHT22;8530;49.540;8.576;2023-08-17T12:34:55;30.80;57.60
16827;DHT22;8530;49.540;8.576;2023-08-17T12:37:22;31.00;57.50
16827;DHT22;8530;49.540;8.576;2023-08-17T12:39:50;31.10;57.00
16827;DHT22;8530;49.540;8.576;2023-08-17T12:42:17;31.10;56.70
16827;DHT22;8530;49.540;8.576;2023-08-17T12:44:44;31.10;56.50
16827;DHT22;8530;49.540;8.576;2023-08-17T12:47:10;31.10;56.30
16827;DHT22;8530;49.540;8.576;2023-08-17T12:49:37;31.10;56.00
16827;DHT22;8530;49.540;8.576;2023-08-17T12:52:04;31.20;55.80
16827;DHT22;8530;49.540;8.576;2023-08-17T12:54:31;31.40;55.60
16827;DHT22;8530;49.540;8.576;2023-08-17T12:56:59;31.50;55.20
16827;DHT22;8530;49.540;8.576;2023-08-17T12:59:27;31.60;55.00
16827;DHT22;8530;49.540;8.576;2023-08-17T13:01:53;31.70;54.60
16827;DHT22;8530;49.540;8.576;2023-08-17T13:04:20;31.80;54.20
16827;DHT22;8530;49.540;8.576;2023-08-17T13:06:47;32.00;53.80
16827;DHT22;8530;49.540;8.576;2023-08-17T13:09:16;32.30;53.40
16827;DHT22;8530;49.540;8.576;2023-08-17T13:11:44;32.30;52.90
16827;DHT22;8530;49.540;8.576;2023-08-17T13:14:13;32.30;52.50
16827;DHT22;8530;49.540;8.576;2023-08-17T13:16:40;32.40;52.10
16827;DHT22;8530;49.540;8.576;2023-08-17T13:19:06;32.40;51.80
16827;DHT22;8530;49.540;8.576;2023-08-17T13:21:33;32.30;51.80
16827;DHT22;8530;49.540;8.576;2023-08-17T13:24:00;32.20;51.80
16827;DHT22;8530;49.540;8.576;2023-08-17T13:26:28;32.10;51.80
16827;DHT22;8530;49.540;8.576;2023-08-17T13:28:55;32.00;51.90
16827;DHT22;8530;49.540;8.576;2023-08-17T13:31:23;31.80;52.00
16827;DHT22;8530;49.540;8.576;2023-08-17T13:33:50;31.50;52.10
16827;DHT22;8530;49.540;8.576;2023-08-17T13:36:17;31.20;52.50
16827;DHT22;8530;49.540;8.576;2023-08-17T13:38:43;31.00;53.00
16827;DHT22;8530;49.540;8.576;2023-08-17T13:41:11;30.80;53.50
16827;DHT22;8530;49.540;8.576;2023-08-17T13:43:37;30.60;54.00
16827;DHT22;8530;49.540;8.576;2023-08-17T13:46:04;30.40;54.60
16827;DHT22;8530;49.540;8.576;2023-08-17T13:48:33;30.30;55.20
16827;DHT22;8530;49.540;8.576;2023-08-17T13:50:59;30.00;55.70
16827;DHT22;8530;49.540;8.576;2023-08-17T13:53:26;29.80;56.30
16827;DHT22;8530;49.540;8.576;2023-08-17T13:55:53;29.60;56.90
16827;DHT22;8530;49.540;8.576;2023-08-17T13:58:19;29.60;57.30
16827;DHT22;8530;49.540;8.576;2023-08-17T14:00:46;29.60;57.60
16827;DHT22;8530;49.540;8.576;2023-08-17T14:03:13;29.70;57.90
16827;DHT22;8530;49.540;8.576;2023-08-17T14:05:41;29.70;58.00
16827;DHT22;8530;49.540;8.576;2023-08-17T14:08:08;29.80;58.20
16827;DHT22;8530;49.540;8.576;2023-08-17T14:10:36;29.90;58.20
16827;DHT22;8530;49.540;8.576;2023-08-17T14:13:03;30.00;58.20
16827;DHT22;8530;49.540;8.576;2023-08-17T14:15:30;30.10;58.30
16827;DHT22;8530;49.540;8.576;2023-08-17T14:17:56;30.30;58.30
16827;DHT22;8530;49.540;8.576;2023-08-17T14:20:23;30.40;58.20
16827;DHT22;8530;49.540;8.576;2023-08-17T14:22:51;30.60;58.10
16827;DHT22;8530;49.540;8.576;2023-08-17T14:25:18;30.90;57.90
16827;DHT22;8530;49.540;8.576;2023-08-17T14:27:45;31.10;57.60
16827;DHT22;8530;49.540;8.576;2023-08-17T14:30:12;31.40;57.30
16827;DHT22;8530;49.540;8.576;2023-08-17T14:32:38;31.50;57.10
16827;DHT22;8530;49.540;8.576;2023-08-17T14:35:06;31.60;56.80
16827;DHT22;8530;49.540;8.576;2023-08-17T14:37:32;31.70;56.60
16827;DHT22;8530;49.540;8.576;2023-08-17T14:40:01;31.80;56.30
16827;DHT22;8530;49.540;8.576;2023-08-17T14:42:28;31.80;56.10
16827;DHT22;8530;49.540;8.576;2023-08-17T14:44:55;31.70;55.90
16827;DHT22;8530;49.540;8.576;2023-08-17T14:47:21;31.60;55.90
16827;DHT22;8530;49.540;8.576;2023-08-17T14:49:48;31.70;55.90
16827;DHT22;8530;49.540;8.576;2023-08-17T14:52:15;31.70;55.80
16827;DHT22;8530;49.540;8.576;2023-08-17T14:54:42;31.70;55.60
16827;DHT22;8530;49.540;8.576;2023-08-17T14:57:10;31.70;55.60
16827;DHT22;8530;49.540;8.576;2023-08-17T14:59:36;31.70;55.60
16827;DHT22;8530;49.540;8.576;2023-08-17T15:02:03;31.70;55.50
16827;DHT22;8530;49.540;8.576;2023-08-17T15:04:30;31.50;55.50
16827;DHT22;8530;49.540;8.576;2023-08-17T15:06:58;31.50;55.70
16827;DHT22;8530;49.540;8.576;2023-08-17T15:09:25;31.50;55.80
16827;DHT22;8530;49.540;8.576;2023-08-17T15:11:52;31.50;55.80
16827;DHT22;8530;49.540;8.576;2023-08-17T15:14:20;31.50;55.80
16827;DHT22;8530;49.540;8.576;2023-08-17T15:16:46;31.50;55.90
16827;DHT22;8530;49.540;8.576;2023-08-17T15:19:13;31.50;55.90
16827;DHT22;8530;49.540;8.576;2023-08-17T15:21:40;31.50;56.00
16827;DHT22;8530;49.540;8.576;2023-08-17T15:24:06;31.40;55.90
16827;DHT22;8530;49.540;8.576;2023-08-17T15:26:33;31.40;55.80
16827;DHT22;8530;49.540;8.576;2023-08-17T15:29:00;31.40;55.80
16827;DHT22;8530;49.540;8.576;2023-08-17T15:31:28;31.30;55.70
16827;DHT22;8530;49.540;8.576;2023-08-17T15:33:55;31.30;55.80
16827;DHT22;8530;49.540;8.576;2023-08-17T15:36:22;31.40;55.80
16827;DHT22;8530;49.540;8.576;2023-08-17T15:38:49;31.50;55.60
16827;DHT22;8530;49.540;8.576;2023-08-17T15:41:18;31.70;55.50
16827;DHT22;8530;49.540;8.576;2023-08-17T15:43:45;31.80;55.20
16827;DHT22;8530;49.540;8.576;2023-08-17T15:46:11;32.00;55.00
16827;DHT22;8530;49.540;8.576;2023-08-17T15:48:39;32.10;54.70